sensor_id;sensor_type;location;lat;lon;timestamp;temperature;humidity
7174;DHT22;3628;48.654;8.932;2023-01-19T00:01:21;-4.20;99.90
7174;DHT22;3628;48.654;8.932;2023-01-19T00:03:46;-4.20;99.90
7174;DHT22;3628;48.654;8.932;2023-01-19T00:06:12;-4.20;99.90
7174;DHT22;3628;48.654;8.932;2023-01-19T00:08:37;-4.20;99.90
7174;DHT22;3628;48.654;8.932;2023-01-19T00:11:03;-4.20;99.90
7174;DHT22;3628;48.654;8.932;2023-01-19T00:13:29;-4.20;99.90
7174;DHT22;3628;48.654;8.932;2023-01-19T00:15:55;-4.20;99.90
7174;DHT22;3628;48.654;8.932;2023-01-19T00:18:20;-4.10;99.90
7174;DHT22;3628;48.654;8.932;2023-01-19T00:20:47;-4.10;99.90
7174;DHT22;3628;48.654;8.932;2023-01-19T00:23:13;-4.10;99.90
7174;DHT22;3628;48.654;8.932;2023-01-19T00:25:39;-4.10;99.90
7174;DHT22;3628;48.654;8.932;2023-01-19T00:28:07;-4.00;99.90
7174;DHT22;3628;48.654;8.932;2023-01-19T00:30:32;-4.10;99.90
7174;DHT22;3628;48.654;8.932;2023-01-19T00:32:58;-4.10;99.90
7174;DHT22;3628;48.654;8.932;2023-01-19T00:35:23;-4.20;99.90
7174;DHT22;3628;48.654;8.932;2023-01-19T00:37:49;-4.20;99.90
7174;DHT22;3628;48.654;8.932;2023-01-19T00:40:15;-4.30;99.90
7174;DHT22;3628;48.654;8.932;2023-01-19T00:42:41;-4.30;99.90
7174;DHT22;3628;48.654;8.932;2023-01-19T00:45:11;-4.30;99.90
7174;DHT22;3628;48.654;8.932;2023-01-19T00:47:37;-4.40;99.90
7174;DHT22;3628;48.654;8.932;2023-01-19T00:50:08;-4.40;99.90
7174;DHT22;3628;48.654;8.932;2023-01-19T00:52:37;-4.40;99.90
7174;DHT22;3628;48.654;8.932;2023-01-19T00:55:03;-4.40;99.90
7174;DHT22;3628;48.654;8.932;2023-01-19T00:57:29;-4.40;99.90
7174;DHT22;3628;48.654;8.932;2023-01-19T00:59:55;-4.40;99.90
7174;DHT22;3628;48.654;8.932;2023-01-19T01:02:20;-4.30;99.90
7174;DHT22;3628;48.654;8.932;2023-01-19T01:04:46;-4.30;99.90
7174;DHT22;3628;48.654;8.932;2023-01-19T01:07:11;-4.30;99.90
7174;DHT22;3628;48.654;8.932;2023-01-19T01:09:37;-4.30;99.90
7174;DHT22;3628;48.654;8.932;2023-01-19T01:12:03;-4.20;99.90
7174;DHT22;3628;48.654;8.932;2023-01-19T01:14:28;-4.20;99.90
7174;DHT22;3628;48.654;8.932;2023-01-19T01:16:54;-4.20;99.90
7174;DHT22;3628;48.654;8.932;2023-01-19T01:19:20;-4.20;99.90
7174;DHT22;3628;48.654;8.932;2023-01-19T01:21:45;-4.20;99.90
7174;DHT22;3628;48.654;8.932;2023-01-19T01:24:11;-4.10;99.90
7174;DHT22;3628;48.654;8.932;2023-01-19T01:26:37;-4.10;99.90
7174;DHT22;3628;48.654;8.932;2023-01-19T01:29:04;-4.20;99.90
7174;DHT22;3628;48.654;8.932;2023-01-19T01:31:30;-4.20;99.90
7174;DHT22;3628;48.654;8.932;2023-01-19T01:33:56;-4.20;99.90
7174;DHT22;3628;48.654;8.932;2023-01-19T01:36:22;-4.20;99.90
7174;DHT22;3628;48.654;8.932;2023-01-19T01:38:47;-4.20;99.90
7174;DHT22;3628;48.654;8.932;2023-01-19T01:41:13;-4.30;99.90
7174;DHT22;3628;48.654;8.932;2023-01-19T01:43:48;-4.30;99.90
7174;DHT22;3628;48.654;8.932;2023-01-19T01:46:15;-4.30;99.90
7174;DHT22;3628;48.654;8.932;2023-01-19T01:48:45;-4.30;99.90
7174;DHT22;3628;48.654;8.932;2023-01-19T01:51:25;-4.30;99.90
7174;DHT22;3628;48.654;8.932;2023-01-19T01:54:08;-4.30;99.90
7174;DHT22;3628;48.654;8.932;2023-01-19T01:56:43;-4.30;99.90
7174;DHT22;3628;48.654;8.932;2023-01-19T01:59:22;-4.40;99.90
7174;DHT22;3628;48.654;8.932;2023-01-19T02:01:56;-4.30;99.90
7174;DHT22;3628;48.654;8.932;2023-01-19T02:04:46;-4.30;99.90
7174;DHT22;3628;48.654;8.932;2023-01-19T02:07:17;-4.30;99.90
7174;DHT22;3628;48.654;8.932;2023-01-19T02:10:02;-4.20;99.90
7174;DHT22;3628;48.654;8.932;2023-01-19T02:12:47;-4.30;99.90
7174;DHT22;3628;48.654;8.932;2023-01-19T02:15:31;-4.20;99.90
7174;DHT22;3628;48.654;8.932;2023-01-19T02:17:56;-4.20;99.90
7174;DHT22;3628;48.654;8.932;2023-01-19T02:20:25;-4.20;99.90
7174;DHT22;3628;48.654;8.932;2023-01-19T02:22:54;-4.20;99.90
7174;DHT22;3628;48.654;8.932;2023-01-19T02:25:21;-4.20;99.90
7174;DHT22;3628;48.654;8.932;2023-01-19T02:27:49;-4.20;99.90
7174;DHT22;3628;48.654;8.932;2023-01-19T02:30:17;-4.20;99.90
7174;DHT22;3628;48.654;8.932;2023-01-19T02:32:43;-4.20;99.90
7174;DHT22;3628;48.654;8.932;2023-01-19T02:35:09;-4.20;99.90
7174;DHT22;3628;48.654;8.932;2023-01-19T02:37:36;-4.20;99.90
7174;DHT22;3628;48.654;8.932;2023-01-19T02:40:08;-4.20;99.90
7174;DHT22;3628;48.654;8.932;2023-01-19T02:42:42;-4.20;99.90
7174;DHT22;3628;48.654;8.932;2023-01-19T02:45:10;-4.20;99.90
7174;DHT22;3628;48.654;8.932;2023-01-19T02:47:44;-4.30;99.90
7174;DHT22;3628;48.654;8.932;2023-01-19T02:59:04;-4.40;99.90
7174;DHT22;3628;48.654;8.932;2023-01-19T03:04:35;-4.50;99.90
7174;DHT22;3628;48.654;8.932;2023-01-19T03:07:08;-4.50;99.90
7174;DHT22;3628;48.654;8.932;2023-01-19T03:09:50;-4.60;99.90
7174;DHT22;3628;48.654;8.932;2023-01-19T03:12:26;-4.60;99.90
7174;DHT22;3628;48.654;8.932;2023-01-19T03:15:00;-4.60;99.90
7174;DHT22;3628;48.654;8.932;2023-01-19T03:17:30;-4.60;99.90
7174;DHT22;3628;48.654;8.932;2023-01-19T03:19:56;-4.70;99.90
7174;DHT22;3628;48.654;8.932;2023-01-19T03:22:25;-4.80;99.90
7174;DHT22;3628;48.654;8.932;2023-01-19T03:24:54;-4.80;99.90
7174;DHT22;3628;48.654;8.932;2023-01-19T03:27:28;-4.90;99.90
7174;DHT22;3628;48.654;8.932;2023-01-19T03:29:59;-4.90;99.90
7174;DHT22;3628;48.654;8.932;2023-01-19T03:32:32;-4.90;99.90
7174;DHT22;3628;48.654;8.932;2023-01-19T03:35:02;-5.00;99.90
7174;DHT22;3628;48.654;8.932;2023-01-19T03:37:30;-5.00;99.90
7174;DHT22;3628;48.654;8.932;2023-01-19T03:39:56;-5.00;99.90
7174;DHT22;3628;48.654;8.932;2023-01-19T03:42:23;-5.00;99.90
7174;DHT22;3628;48.654;8.932;2023-01-19T03:44:50;-5.00;99.90
7174;DHT22;3628;48.654;8.932;2023-01-19T03:47:20;-5.00;99.90
7174;DHT22;3628;48.654;8.932;2023-01-19T03:49:46;-5.00;99.90
7174;DHT22;3628;48.654;8.932;2023-01-19T03:52:14;-5.00;99.90
7174;DHT22;3628;48.654;8.932;2023-01-19T03:54:40;-5.00;99.90
7174;DHT22;3628;48.654;8.932;2023-01-19T03:57:05;-5.00;99.90
7174;DHT22;3628;48.654;8.932;2023-01-19T03:59:31;-5.00;99.90
7174;DHT22;3628;48.654;8.932;2023-01-19T04:01:56;-4.90;99.90
7174;DHT22;3628;48.654;8.932;2023-01-19T04:04:22;-4.80;99.90
7174;DHT22;3628;48.654;8.932;2023-01-19T04:06:49;-4.60;99.90
7174;DHT22;3628;48.654;8.932;2023-01-19T04:09:15;-4.50;99.90
7174;DHT22;3628;48.654;8.932;2023-01-19T04:11:41;-4.30;99.90
7174;DHT22;3628;48.654;8.932;2023-01-19T04:14:06;-4.30;99.90
7174;DHT22;3628;48.654;8.932;2023-01-19T04:16:32;-4.20;99.90
7174;DHT22;3628;48.654;8.932;2023-01-19T04:18:57;-4.10;99.90
7174;DHT22;3628;48.654;8.932;2023-01-19T04:21:23;-4.10;99.90
7174;DHT22;3628;48.654;8.932;2023-01-19T04:23:48;-4.00;99.90
7174;DHT22;3628;48.654;8.932;2023-01-19T04:26:15;-3.90;99.90
7174;DHT22;3628;48.654;8.932;2023-01-19T04:28:40;-3.90;99.90
7174;DHT22;3628;48.654;8.932;2023-01-19T04:31:06;-3.80;99.90
7174;DHT22;3628;48.654;8.932;2023-01-19T04:33:32;-3.70;99.90
7174;DHT22;3628;48.654;8.932;2023-01-19T04:35:58;-3.70;99.90
7174;DHT22;3628;48.654;8.932;2023-01-19T04:38:24;-3.60;99.90
7174;DHT22;3628;48.654;8.932;2023-01-19T04:40:52;-3.50;99.90
7174;DHT22;3628;48.654;8.932;2023-01-19T04:43:18;-3.50;99.90
7174;DHT22;3628;48.654;8.932;2023-01-19T04:45:45;-3.40;99.90
7174;DHT22;3628;48.654;8.932;2023-01-19T04:48:11;-3.40;99.90
7174;DHT22;3628;48.654;8.932;2023-01-19T04:50:38;-3.40;99.90
7174;DHT22;3628;48.654;8.932;2023-01-19T04:53:04;-3.40;99.90
7174;DHT22;3628;48.654;8.932;2023-01-19T04:55:29;-3.40;99.90
7174;DHT22;3628;48.654;8.932;2023-01-19T04:57:55;-3.50;99.90
7174;DHT22;3628;48.654;8.932;2023-01-19T05:00:20;-3.50;99.90
7174;DHT22;3628;48.654;8.932;2023-01-19T05:02:46;-3.60;99.90
7174;DHT22;3628;48.654;8.932;2023-01-19T05:05:12;-3.60;99.90
7174;DHT22;3628;48.654;8.932;2023-01-19T05:07:38;-3.70;99.90
7174;DHT22;3628;48.654;8.932;2023-01-19T05:10:05;-3.70;99.90
7174;DHT22;3628;48.654;8.932;2023-01-19T05:12:31;-3.70;99.90
7174;DHT22;3628;48.654;8.932;2023-01-19T05:14:56;-3.80;99.90
7174;DHT22;3628;48.654;8.932;2023-01-19T05:17:22;-3.80;99.90
7174;DHT22;3628;48.654;8.932;2023-01-19T05:19:47;-3.90;99.90
7174;DHT22;3628;48.654;8.932;2023-01-19T05:22:13;-4.10;99.90
7174;DHT22;3628;48.654;8.932;2023-01-19T05:24:39;-4.20;99.90
7174;DHT22;3628;48.654;8.932;2023-01-19T05:27:05;-4.40;99.90
7174;DHT22;3628;48.654;8.932;2023-01-19T05:29:30;-4.40;99.90
7174;DHT22;3628;48.654;8.932;2023-01-19T05:31:56;-4.50;99.90
7174;DHT22;3628;48.654;8.932;2023-01-19T05:34:22;-4.60;99.90
7174;DHT22;3628;48.654;8.932;2023-01-19T05:36:48;-4.60;99.90
7174;DHT22;3628;48.654;8.932;2023-01-19T05:39:14;-4.60;99.90
7174;DHT22;3628;48.654;8.932;2023-01-19T05:41:39;-4.60;99.90
7174;DHT22;3628;48.654;8.932;2023-01-19T05:44:06;-4.50;99.90
7174;DHT22;3628;48.654;8.932;2023-01-19T05:46:32;-4.50;99.90
7174;DHT22;3628;48.654;8.932;2023-01-19T05:48:59;-4.50;99.90
7174;DHT22;3628;48.654;8.932;2023-01-19T05:51:28;-4.40;99.90
7174;DHT22;3628;48.654;8.932;2023-01-19T05:54:00;-4.40;99.90
7174;DHT22;3628;48.654;8.932;2023-01-19T05:56:26;-4.40;99.90
7174;DHT22;3628;48.654;8.932;2023-01-19T05:58:52;-4.40;99.90
7174;DHT22;3628;48.654;8.932;2023-01-19T06:01:17;-4.40;99.90
7174;DHT22;3628;48.654;8.932;2023-01-19T06:03:43;-4.30;99.90
7174;DHT22;3628;48.654;8.932;2023-01-19T06:06:08;-4.30;99.90
7174;DHT22;3628;48.654;8.932;2023-01-19T06:08:34;-4.20;99.90
7174;DHT22;3628;48.654;8.932;2023-01-19T06:10:59;-4.20;99.90
7174;DHT22;3628;48.654;8.932;2023-01-19T06:13:25;-4.20;99.90
7174;DHT22;3628;48.654;8.932;2023-01-19T06:15:58;-4.30;99.90
7174;DHT22;3628;48.654;8.932;2023-01-19T06:18:23;-4.30;99.90
7174;DHT22;3628;48.654;8.932;2023-01-19T06:20:49;-4.30;99.90
7174;DHT22;3628;48.654;8.932;2023-01-19T06:23:16;-4.30;99.90
7174;DHT22;3628;48.654;8.932;2023-01-19T06:25:41;-4.30;99.90
7174;DHT22;3628;48.654;8.932;2023-01-19T06:28:07;-4.20;99.90
7174;DHT22;3628;48.654;8.932;2023-01-19T06:30:32;-4.20;99.90
7174;DHT22;3628;48.654;8.932;2023-01-19T06:32:58;-4.10;99.90
7174;DHT22;3628;48.654;8.932;2023-01-19T06:35:23;-4.00;99.90
7174;DHT22;3628;48.654;8.932;2023-01-19T06:37:49;-4.00;99.90
7174;DHT22;3628;48.654;8.932;2023-01-19T06:40:15;-3.90;99.90
7174;DHT22;3628;48.654;8.932;2023-01-19T06:42:41;-3.90;99.90
7174;DHT22;3628;48.654;8.932;2023-01-19T06:45:07;-4.00;99.90
7174;DHT22;3628;48.654;8.932;2023-01-19T06:47:34;-3.90;99.90
7174;DHT22;3628;48.654;8.932;2023-01-19T06:50:00;-4.00;99.90
7174;DHT22;3628;48.654;8.932;2023-01-19T06:52:26;-4.00;99.90
7174;DHT22;3628;48.654;8.932;2023-01-19T06:54:52;-4.10;99.90
7174;DHT22;3628;48.654;8.932;2023-01-19T06:57:18;-4.10;99.90
7174;DHT22;3628;48.654;8.932;2023-01-19T06:59:43;-4.20;99.90
7174;DHT22;3628;48.654;8.932;2023-01-19T07:02:09;-4.20;99.90
7174;DHT22;3628;48.654;8.932;2023-01-19T07:04:42;-4.20;99.90
7174;DHT22;3628;48.654;8.932;2023-01-19T07:07:08;-4.10;99.90
7174;DHT22;3628;48.654;8.932;2023-01-19T07:09:33;-4.20;99.90
7174;DHT22;3628;48.654;8.932;2023-01-19T07:11:59;-4.10;99.90
7174;DHT22;3628;48.654;8.932;2023-01-19T07:14:24;-4.10;99.90
7174;DHT22;3628;48.654;8.932;2023-01-19T07:16:55;-4.10;99.90
7174;DHT22;3628;48.654;8.932;2023-01-19T07:19:20;-4.00;99.90
7174;DHT22;3628;48.654;8.932;2023-01-19T07:21:46;-4.00;99.90
7174;DHT22;3628;48.654;8.932;2023-01-19T07:24:11;-4.10;99.90
7174;DHT22;3628;48.654;8.932;2023-01-19T07:26:37;-4.10;99.90
7174;DHT22;3628;48.654;8.932;2023-01-19T07:29:02;-4.10;99.90
7174;DHT22;3628;48.654;8.932;2023-01-19T07:31:28;-4.00;99.90
7174;DHT22;3628;48.654;8.932;2023-01-19T07:33:53;-4.00;99.90
7174;DHT22;3628;48.654;8.932;2023-01-19T07:36:19;-4.00;99.90
7174;DHT22;3628;48.654;8.932;2023-01-19T07:38:44;-4.00;99.90
7174;DHT22;3628;48.654;8.932;2023-01-19T07:41:10;-3.90;99.90
7174;DHT22;3628;48.654;8.932;2023-01-19T07:43:36;-3.80;99.90
7174;DHT22;3628;48.654;8.932;2023-01-19T07:46:04;-3.80;99.90
7174;DHT22;3628;48.654;8.932;2023-01-19T07:48:30;-3.70;99.90
7174;DHT22;3628;48.654;8.932;2023-01-19T07:50:59;-3.60;99.90
7174;DHT22;3628;48.654;8.932;2023-01-19T07:53:25;-3.50;99.90
7174;DHT22;3628;48.654;8.932;2023-01-19T07:55:54;-3.40;99.90
7174;DHT22;3628;48.654;8.932;2023-01-19T07:58:21;-3.40;99.90
7174;DHT22;3628;48.654;8.932;2023-01-19T08:00:47;-3.30;99.90
7174;DHT22;3628;48.654;8.932;2023-01-19T08:03:12;-3.10;99.90
7174;DHT22;3628;48.654;8.932;2023-01-19T08:05:38;-3.00;99.90
7174;DHT22;3628;48.654;8.932;2023-01-19T08:08:04;-2.70;99.90
7174;DHT22;3628;48.654;8.932;2023-01-19T08:10:30;-2.60;99.90
7174;DHT22;3628;48.654;8.932;2023-01-19T08:12:56;-2.40;99.90
7174;DHT22;3628;48.654;8.932;2023-01-19T08:15:22;-2.30;99.90
7174;DHT22;3628;48.654;8.932;2023-01-19T08:17:59;-2.10;99.90
7174;DHT22;3628;48.654;8.932;2023-01-19T08:20:25;-2.00;99.90
7174;DHT22;3628;48.654;8.932;2023-01-19T08:22:51;-1.80;99.90
7174;DHT22;3628;48.654;8.932;2023-01-19T08:25:25;-1.70;99.90
7174;DHT22;3628;48.654;8.932;2023-01-19T08:27:53;-1.50;99.90
7174;DHT22;3628;48.654;8.932;2023-01-19T08:30:19;-1.30;99.90
7174;DHT22;3628;48.654;8.932;2023-01-19T08:32:44;-1.20;99.90
7174;DHT22;3628;48.654;8.932;2023-01-19T08:35:10;-1.00;99.90
7174;DHT22;3628;48.654;8.932;2023-01-19T08:37:35;-0.90;99.90
7174;DHT22;3628;48.654;8.932;2023-01-19T08:40:01;-0.80;99.90
7174;DHT22;3628;48.654;8.932;2023-01-19T08:42:26;-0.70;99.90
7174;DHT22;3628;48.654;8.932;2023-01-19T08:44:52;-0.50;99.90
7174;DHT22;3628;48.654;8.932;2023-01-19T08:47:18;-0.40;99.90
7174;DHT22;3628;48.654;8.932;2023-01-19T08:49:44;-0.20;99.90
7174;DHT22;3628;48.654;8.932;2023-01-19T08:52:09;0.00;99.90
7174;DHT22;3628;48.654;8.932;2023-01-19T08:54:35;0.20;99.90
7174;DHT22;3628;48.654;8.932;2023-01-19T08:57:01;0.30;99.90
7174;DHT22;3628;48.654;8.932;2023-01-19T08:59:27;0.40;99.90
7174;DHT22;3628;48.654;8.932;2023-01-19T09:01:53;0.50;99.90
7174;DHT22;3628;48.654;8.932;2023-01-19T09:04:18;0.60;99.90
7174;DHT22;3628;48.654;8.932;2023-01-19T09:06:44;0.60;99.90
7174;DHT22;3628;48.654;8.932;2023-01-19T09:09:09;0.60;99.90
7174;DHT22;3628;48.654;8.932;2023-01-19T09:11:35;0.50;99.90
7174;DHT22;3628;48.654;8.932;2023-01-19T09:14:00;0.50;99.90
7174;DHT22;3628;48.654;8.932;2023-01-19T09:16:26;0.50;99.90
7174;DHT22;3628;48.654;8.932;2023-01-19T09:18:53;0.60;99.90
7174;DHT22;3628;48.654;8.932;2023-01-19T09:21:18;0.70;99.90
7174;DHT22;3628;48.654;8.932;2023-01-19T09:23:44;0.90;99.90
7174;DHT22;3628;48.654;8.932;2023-01-19T09:26:10;1.10;99.90
7174;DHT22;3628;48.654;8.932;2023-01-19T09:28:36;1.30;99.90
7174;DHT22;3628;48.654;8.932;2023-01-19T09:31:07;1.60;99.90
7174;DHT22;3628;48.654;8.932;2023-01-19T09:33:33;1.90;99.90
7174;DHT22;3628;48.654;8.932;2023-01-19T09:35:59;1.90;99.90
7174;DHT22;3628;48.654;8.932;2023-01-19T09:38:24;1.80;99.90
7174;DHT22;3628;48.654;8.932;2023-01-19T09:40:53;1.80;99.90
7174;DHT22;3628;48.654;8.932;2023-01-19T09:43:22;1.80;99.90
7174;DHT22;3628;48.654;8.932;2023-01-19T09:45:57;1.70;99.90
7174;DHT22;3628;48.654;8.932;2023-01-19T09:48:37;1.70;99.90
7174;DHT22;3628;48.654;8.932;2023-01-19T09:51:06;1.70;99.90
7174;DHT22;3628;48.654;8.932;2023-01-19T09:53:48;1.80;99.90
7174;DHT22;3628;48.654;8.932;2023-01-19T09:56:17;1.90;99.90
7174;DHT22;3628;48.654;8.932;2023-01-19T09:58:44;1.90;99.90
7174;DHT22;3628;48.654;8.932;2023-01-19T10:01:32;1.80;99.90
7174;DHT22;3628;48.654;8.932;2023-01-19T10:06:56;1.60;99.90
7174;DHT22;3628;48.654;8.932;2023-01-19T10:09:39;1.60;99.90
7174;DHT22;3628;48.654;8.932;2023-01-19T10:12:20;1.50;99.90
7174;DHT22;3628;48.654;8.932;2023-01-19T10:15:19;1.40;99.90
7174;DHT22;3628;48.654;8.932;2023-01-19T10:20:27;1.00;99.90
7174;DHT22;3628;48.654;8.932;2023-01-19T10:22:53;1.00;99.90
7174;DHT22;3628;48.654;8.932;2023-01-19T10:25:21;1.10;99.90
7174;DHT22;3628;48.654;8.932;2023-01-19T10:27:50;1.20;99.90
7174;DHT22;3628;48.654;8.932;2023-01-19T10:30:22;1.30;99.90
7174;DHT22;3628;48.654;8.932;2023-01-19T10:32:49;1.40;99.90
7174;DHT22;3628;48.654;8.932;2023-01-19T10:35:21;1.50;99.90
7174;DHT22;3628;48.654;8.932;2023-01-19T10:37:55;1.50;99.90
7174;DHT22;3628;48.654;8.932;2023-01-19T10:40:42;1.50;99.90
7174;DHT22;3628;48.654;8.932;2023-01-19T10:43:34;1.60;99.90
7174;DHT22;3628;48.654;8.932;2023-01-19T10:46:04;1.60;99.90
7174;DHT22;3628;48.654;8.932;2023-01-19T10:48:39;1.40;99.90
7174;DHT22;3628;48.654;8.932;2023-01-19T10:51:08;1.40;99.90
7174;DHT22;3628;48.654;8.932;2023-01-19T10:53:34;1.30;99.90
7174;DHT22;3628;48.654;8.932;2023-01-19T10:56:30;1.20;99.90
7174;DHT22;3628;48.654;8.932;2023-01-19T10:58:58;1.00;99.90
7174;DHT22;3628;48.654;8.932;2023-01-19T11:01:26;0.90;99.90
7174;DHT22;3628;48.654;8.932;2023-01-19T11:03:53;0.80;99.90
7174;DHT22;3628;48.654;8.932;2023-01-19T11:06:20;0.90;99.90
7174;DHT22;3628;48.654;8.932;2023-01-19T11:08:47;1.00;99.90
7174;DHT22;3628;48.654;8.932;2023-01-19T11:11:16;1.20;99.90
7174;DHT22;3628;48.654;8.932;2023-01-19T11:13:42;1.50;99.90
7174;DHT22;3628;48.654;8.932;2023-01-19T11:16:26;1.70;99.90
7174;DHT22;3628;48.654;8.932;2023-01-19T11:18:54;1.80;99.90
7174;DHT22;3628;48.654;8.932;2023-01-19T11:21:26;1.90;99.90
7174;DHT22;3628;48.654;8.932;2023-01-19T11:23:56;2.10;99.90
7174;DHT22;3628;48.654;8.932;2023-01-19T11:26:40;2.30;99.90
7174;DHT22;3628;48.654;8.932;2023-01-19T11:29:14;2.50;99.90
7174;DHT22;3628;48.654;8.932;2023-01-19T11:31:40;2.70;99.90
7174;DHT22;3628;48.654;8.932;2023-01-19T11:34:34;2.80;99.90
7174;DHT22;3628;48.654;8.932;2023-01-19T11:39:52;3.20;99.90
7174;DHT22;3628;48.654;8.932;2023-01-19T11:42:18;3.30;99.90
7174;DHT22;3628;48.654;8.932;2023-01-19T11:45:03;3.40;99.90
7174;DHT22;3628;48.654;8.932;2023-01-19T11:47:48;3.40;99.90
7174;DHT22;3628;48.654;8.932;2023-01-19T11:56:02;3.70;99.90
7174;DHT22;3628;48.654;8.932;2023-01-19T11:58:30;3.90;99.90
7174;DHT22;3628;48.654;8.932;2023-01-19T12:01:23;4.00;99.90
7174;DHT22;3628;48.654;8.932;2023-01-19T12:04:11;4.00;99.90
7174;DHT22;3628;48.654;8.932;2023-01-19T12:06:51;4.00;99.90
7174;DHT22;3628;48.654;8.932;2023-01-19T12:09:27;4.00;99.90
7174;DHT22;3628;48.654;8.932;2023-01-19T12:12:03;3.90;99.90
7174;DHT22;3628;48.654;8.932;2023-01-19T12:14:56;3.80;99.90
7174;DHT22;3628;48.654;8.932;2023-01-19T12:17:33;3.80;99.90
7174;DHT22;3628;48.654;8.932;2023-01-19T12:20:26;3.70;99.90
7174;DHT22;3628;48.654;8.932;2023-01-19T12:28:38;3.50;99.90
7174;DHT22;3628;48.654;8.932;2023-01-19T12:31:05;3.40;99.90
7174;DHT22;3628;48.654;8.932;2023-01-19T12:33:48;3.30;99.90
7174;DHT22;3628;48.654;8.932;2023-01-19T12:39:19;3.30;99.90
7174;DHT22;3628;48.654;8.932;2023-01-19T12:41:46;3.30;99.90
7174;DHT22;3628;48.654;8.932;2023-01-19T12:46:48;3.10;99.90
7174;DHT22;3628;48.654;8.932;2023-01-19T12:49:34;3.10;99.90
7174;DHT22;3628;48.654;8.932;2023-01-19T12:54:52;2.80;99.90
7174;DHT22;3628;48.654;8.932;2023-01-19T12:59:55;2.70;99.90
7174;DHT22;3628;48.654;8.932;2023-01-19T13:13:39;2.40;99.90
7174;DHT22;3628;48.654;8.932;2023-01-19T13:18:47;2.40;99.90
7174;DHT22;3628;48.654;8.932;2023-01-19T13:23:59;2.30;99.90
7174;DHT22;3628;48.654;8.932;2023-01-19T13:26:36;2.30;99.90
7174;DHT22;3628;48.654;8.932;2023-01-19T13:29:12;2.30;99.90
7174;DHT22;3628;48.654;8.932;2023-01-19T13:31:40;2.30;99.90
7174;DHT22;3628;48.654;8.932;2023-01-19T13:34:38;2.30;99.90
7174;DHT22;3628;48.654;8.932;2023-01-19T13:37:05;2.30;99.90
7174;DHT22;3628;48.654;8.932;2023-01-19T13:39:36;2.10;99.90
7174;DHT22;3628;48.654;8.932;2023-01-19T13:42:08;2.10;99.90
7174;DHT22;3628;48.654;8.932;2023-01-19T13:44:45;2.10;99.90
7174;DHT22;3628;48.654;8.932;2023-01-19T13:47:20;2.10;99.90
7174;DHT22;3628;48.654;8.932;2023-01-19T13:49:54;2.10;99.90
7174;DHT22;3628;48.654;8.932;2023-01-19T13:52:24;2.00;99.90
7174;DHT22;3628;48.654;8.932;2023-01-19T13:54:52;2.00;99.90
7174;DHT22;3628;48.654;8.932;2023-01-19T13:57:30;2.00;99.90
7174;DHT22;3628;48.654;8.932;2023-01-19T14:00:23;1.90;99.90
7174;DHT22;3628;48.654;8.932;2023-01-19T14:05:28;1.90;99.90
7174;DHT22;3628;48.654;8.932;2023-01-19T14:10:35;1.80;99.90
7174;DHT22;3628;48.654;8.932;2023-01-19T14:13:11;1.80;99.90
7174;DHT22;3628;48.654;8.932;2023-01-19T14:15:37;1.80;99.90
7174;DHT22;3628;48.654;8.932;2023-01-19T14:23:52;1.70;99.90
7174;DHT22;3628;48.654;8.932;2023-01-19T14:26:38;1.60;99.90
7174;DHT22;3628;48.654;8.932;2023-01-19T14:34:36;1.70;99.90
7174;DHT22;3628;48.654;8.932;2023-01-19T14:37:26;1.70;99.90
7174;DHT22;3628;48.654;8.932;2023-01-19T14:40:02;1.60;99.90
7174;DHT22;3628;48.654;8.932;2023-01-19T14:42:34;1.60;99.90
7174;DHT22;3628;48.654;8.932;2023-01-19T14:45:04;1.60;99.90
7174;DHT22;3628;48.654;8.932;2023-01-19T14:47:37;1.60;99.90
7174;DHT22;3628;48.654;8.932;2023-01-19T14:52:40;1.60;99.90
7174;DHT22;3628;48.654;8.932;2023-01-19T14:55:18;1.60;99.90
7174;DHT22;3628;48.654;8.932;2023-01-19T14:57:45;1.60;99.90
7174;DHT22;3628;48.654;8.932;2023-01-19T15:00:18;1.60;99.90
7174;DHT22;3628;48.654;8.932;2023-01-19T15:02:45;1.70;99.90
7174;DHT22;3628;48.654;8.932;2023-01-19T15:05:11;1.60;99.90
7174;DHT22;3628;48.654;8.932;2023-01-19T15:07:39;1.70;99.90
7174;DHT22;3628;48.654;8.932;2023-01-19T15:10:20;1.70;99.90
7174;DHT22;3628;48.654;8.932;2023-01-19T15:12:47;1.70;99.90
7174;DHT22;3628;48.654;8.932;2023-01-19T15:15:17;1.60;99.90
7174;DHT22;3628;48.654;8.932;2023-01-19T15:17:44;1.60;99.90
7174;DHT22;3628;48.654;8.932;2023-01-19T15:20:20;1.50;99.90
7174;DHT22;3628;48.654;8.932;2023-01-19T15:22:47;1.50;99.90
7174;DHT22;3628;48.654;8.932;2023-01-19T15:25:14;1.50;99.90
7174;DHT22;3628;48.654;8.932;2023-01-19T15:27:41;1.40;99.90
7174;DHT22;3628;48.654;8.932;2023-01-19T15:30:19;1.50;99.90
7174;DHT22;3628;48.654;8.932;2023-01-19T15:32:46;1.40;99.90
7174;DHT22;3628;48.654;8.932;2023-01-19T15:35:13;1.40;99.90
7174;DHT22;3628;48.654;8.932;2023-01-19T15:37:39;1.40;99.90
7174;DHT22;3628;48.654;8.932;2023-01-19T15:40:05;1.40;99.90
7174;DHT22;3628;48.654;8.932;2023-01-19T15:42:30;1.40;99.90
7174;DHT22;3628;48.654;8.932;2023-01-19T15:44:57;1.40;99.90
7174;DHT22;3628;48.654;8.932;2023-01-19T15:47:23;1.40;99.90
7174;DHT22;3628;48.654;8.932;2023-01-19T15:49:48;1.40;99.90
7174;DHT22;3628;48.654;8.932;2023-01-19T15:52:14;1.40;99.90
7174;DHT22;3628;48.654;8.932;2023-01-19T15:54:39;1.40;99.90
7174;DHT22;3628;48.654;8.932;2023-01-19T15:57:05;1.40;99.90
7174;DHT22;3628;48.654;8.932;2023-01-19T15:59:30;1.40;99.90
7174;DHT22;3628;48.654;8.932;2023-01-19T16:01:56;1.40;99.90
7174;DHT22;3628;48.654;8.932;2023-01-19T16:04:21;1.40;99.90
7174;DHT22;3628;48.654;8.932;2023-01-19T16:06:47;1.30;99.90
7174;DHT22;3628;48.654;8.932;2023-01-19T16:09:14;1.30;99.90
7174;DHT22;3628;48.654;8.932;2023-01-19T16:11:43;1.30;99.90
7174;DHT22;3628;48.654;8.932;2023-01-19T16:14:08;1.40;99.90
7174;DHT22;3628;48.654;8.932;2023-01-19T16:16:34;1.40;99.90
7174;DHT22;3628;48.654;8.932;2023-01-19T16:19:00;1.40;99.90
7174;DHT22;3628;48.654;8.932;2023-01-19T16:21:26;1.40;99.90
7174;DHT22;3628;48.654;8.932;2023-01-19T16:23:52;1.40;99.90
7174;DHT22;3628;48.654;8.932;2023-01-19T16:28:48;1.30;99.90
7174;DHT22;3628;48.654;8.932;2023-01-19T16:31:14;1.40;99.90
7174;DHT22;3628;48.654;8.932;2023-01-19T16:33:40;1.40;99.90
7174;DHT22;3628;48.654;8.932;2023-01-19T16:36:20;1.40;99.90
7174;DHT22;3628;48.654;8.932;2023-01-19T16:38:46;1.30;99.90
7174;DHT22;3628;48.654;8.932;2023-01-19T16:41:11;1.20;99.90
7174;DHT22;3628;48.654;8.932;2023-01-19T16:43:37;1.20;99.90
7174;DHT22;3628;48.654;8.932;2023-01-19T16:46:02;1.20;99.90
7174;DHT22;3628;48.654;8.932;2023-01-19T16:48:29;1.20;99.90
7174;DHT22;3628;48.654;8.932;2023-01-19T16:51:05;1.20;99.90
7174;DHT22;3628;48.654;8.932;2023-01-19T16:53:32;1.20;99.90
7174;DHT22;3628;48.654;8.932;2023-01-19T16:56:09;1.20;99.90
7174;DHT22;3628;48.654;8.932;2023-01-19T16:58:35;1.30;99.90
7174;DHT22;3628;48.654;8.932;2023-01-19T17:01:10;1.20;99.90
7174;DHT22;3628;48.654;8.932;2023-01-19T17:03:36;1.20;99.90
7174;DHT22;3628;48.654;8.932;2023-01-19T17:06:03;1.20;99.90
7174;DHT22;3628;48.654;8.932;2023-01-19T17:08:29;1.20;99.90
7174;DHT22;3628;48.654;8.932;2023-01-19T17:10:54;1.20;99.90
7174;DHT22;3628;48.654;8.932;2023-01-19T17:13:20;1.20;99.90
7174;DHT22;3628;48.654;8.932;2023-01-19T17:15:46;1.20;99.90
7174;DHT22;3628;48.654;8.932;2023-01-19T17:18:12;1.20;99.90
7174;DHT22;3628;48.654;8.932;2023-01-19T17:20:37;1.20;99.90
7174;DHT22;3628;48.654;8.932;2023-01-19T17:23:03;1.20;99.90
7174;DHT22;3628;48.654;8.932;2023-01-19T17:25:28;1.20;99.90
7174;DHT22;3628;48.654;8.932;2023-01-19T17:27:54;1.20;99.90
7174;DHT22;3628;48.654;8.932;2023-01-19T17:30:20;1.10;99.90
7174;DHT22;3628;48.654;8.932;2023-01-19T17:32:45;1.10;99.90
7174;DHT22;3628;48.654;8.932;2023-01-19T17:35:11;1.00;99.90
7174;DHT22;3628;48.654;8.932;2023-01-19T17:37:36;1.00;99.90
7174;DHT22;3628;48.654;8.932;2023-01-19T17:40:02;1.00;99.90
7174;DHT22;3628;48.654;8.932;2023-01-19T17:42:28;0.90;99.90